Corwith Cramer — WTF3319 — position and weather

sailwx.info

Track history (hours):
 
Tides and Currents Weather Stations Pressure Air Temp Water Temp Dewpoint Dewpoint Depression Visibility Wind Speed Wind Dir Waves Ship Positions

Oceanographic research ship Corwith Cramer (USA)

Ship's website: http://www.sea.edu/sea2000/AboutSEA2000/cramer.htm

Detailed information on ship capabilities available from University of Delaware's Ocean Information Center.

Owner: SEA EDUCATION ASSOCIATION, WOODS HOLE, MA. More information available from US FCC via Universal Licensing System and Coast Guard Vessel Documentation Center.

Last reported at 2019-Aug-12 13:39 UTC. Time now 2019-Aug-24 20:09 UTC.
Position N 44°06' W 069°06'.
Warning: this ship's position is 12 days out of date.

Type: Sailing vessel. MMSI: 366724450.

Date/timePositionNaut miles runAvg speedWind from/ knotsBaromVisibWave heightAir tempDewpointWater temp
2019-Aug-12 13:39N 44°06' W 069°06'0 0.0
2019-Aug-12 13:27N 44°06' W 069°06'0 0.0
2019-Aug-12 12:54N 44°06' W 069°06'0 0.0
2019-Aug-12 12:21N 44°06' W 069°06'0 0.0
2019-Aug-12 12:00N 44°06' W 069°06'0 0.2
2019-Aug-12 11:30N 44°06' W 069°06'0 0.8
2019-Aug-12 10:56N 44°06' W 069°05'0 0.0
2019-Aug-12 09:40N 44°06' W 069°05'0 0.0
2019-Aug-12 09:19N 44°06' W 069°05'0 0.0
2019-Aug-12 08:56N 44°06' W 069°05'0 0.0
2019-Aug-12 08:29N 44°06' W 069°05'0 0.0
2019-Aug-12 07:58N 44°06' W 069°05'0 0.0
2019-Aug-12 07:28N 44°06' W 069°05'0 0.0
2019-Aug-12 06:59N 44°06' W 069°05'0 0.0
2019-Aug-12 06:25N 44°06' W 069°05'0 0.0
2019-Aug-12 05:49N 44°06' W 069°05'0 0.0
2019-Aug-12 05:28N 44°06' W 069°05'0 0.0
2019-Aug-12 04:58N 44°06' W 069°05'0 0.0
2019-Aug-12 04:28N 44°06' W 069°05'0 0.0
2019-Aug-12 03:58N 44°06' W 069°05'0 0.0
2019-Aug-12 03:28N 44°06' W 069°05'0 0.0
2019-Aug-12 02:52N 44°06' W 069°05'0 0.0
2019-Aug-12 02:25N 44°06' W 069°05'0 0.0
2019-Aug-12 01:55N 44°06' W 069°05'0 0.0
2019-Aug-12 01:28N 44°06' W 069°05'0 0.0
2019-Aug-12 00:58N 44°06' W 069°05'0 0.0
2019-Aug-12 00:25N 44°06' W 069°05'0 0.0
2019-Aug-11 23:58N 44°06' W 069°05'0 0.0
2019-Aug-11 23:19N 44°06' W 069°05'0 0.0
2019-Aug-11 22:19N 44°06' W 069°05'0 0.0
2019-Aug-11 21:30N 44°06' W 069°05'2 4.1
2019-Aug-11 20:54N 44°06' W 069°02'4 6.1
2019-Aug-11 20:12N 44°01' W 069°01'2 6.6
2019-Aug-11 19:58N 43°60' W 069°00'  
2019-Aug-07 16:05N 43°02' W 070°36'2 1.7
2019-Aug-07 15:00N 43°02' W 070°33'0 0.4
2019-Aug-07 14:28N 43°02' W 070°33'3 2.1
2019-Aug-07 13:03N 43°01' W 070°37'0 5.1
2019-Aug-07 12:59N 43°00' W 070°37'1 0.3
2019-Aug-07 10:30N 42°59' W 070°37'0 0.0
2019-Aug-07 09:51N 42°59' W 070°37'0 0.0
2019-Aug-07 09:24N 42°59' W 070°37'0 0.0
2019-Aug-07 09:00N 42°59' W 070°37'0 0.0
2019-Aug-07 08:27N 42°59' W 070°37'0 0.0
2019-Aug-07 07:54N 42°59' W 070°37'0 0.0
2019-Aug-07 07:30N 42°59' W 070°37'0 0.0
2019-Aug-07 07:00N 42°59' W 070°37'0 0.0
2019-Aug-07 06:30N 42°59' W 070°37'0 0.0
2019-Aug-07 06:00N 42°59' W 070°37'0 0.0
2019-Aug-07 05:30N 42°59' W 070°37'0 0.0
2019-Aug-07 04:51N 42°59' W 070°37'0 0.0
2019-Aug-07 04:09N 42°59' W 070°37'0 0.0
2019-Aug-07 02:57N 42°59' W 070°37'0 0.0
2019-Aug-07 01:51N 42°59' W 070°37'0 0.0
2019-Aug-06 22:48N 42°59' W 070°37'0 0.0
2019-Aug-06 22:12N 42°59' W 070°37'0 0.0
2019-Aug-06 21:54N 42°59' W 070°37'0 0.0
2019-Aug-06 21:21N 42°59' W 070°37'0 0.0
2019-Aug-06 20:45N 42°59' W 070°37'0 0.0
2019-Aug-06 19:45N 42°59' W 070°37'0 0.0
2019-Aug-06 18:24N 42°59' W 070°37'0 0.0
2019-Aug-06 18:00N 42°59' W 070°37'0 0.0
2019-Aug-06 17:21N 42°59' W 070°37'0 0.0
2019-Aug-06 16:32N 42°59' W 070°37'0 0.0
2019-Aug-06 16:29N 42°59' W 070°37'0 0.0
2019-Aug-06 15:53N 42°59' W 070°37'0 0.0
2019-Aug-06 15:29N 42°59' W 070°37'0 0.0
2019-Aug-06 14:59N 42°59' W 070°37'0 0.0
2019-Aug-06 14:29N 42°59' W 070°37'0 0.0
2019-Aug-06 13:50N 42°59' W 070°37'0 0.0
2019-Aug-06 13:29N 42°59' W 070°37'0 0.0
2019-Aug-06 12:59N 42°59' W 070°37'0 0.1
2019-Aug-06 12:30N 42°59' W 070°37'1 2.2
2019-Aug-06 12:00N 43°00' W 070°37'2 4.1
2019-Aug-06 11:28N 43°01' W 070°34'2 3.3
2019-Aug-06 10:55N 42°59' W 070°33'1 2.2
2019-Aug-06 10:30N 42°58' W 070°32'1 2.9
2019-Aug-06 09:59N 42°57' W 070°31'2 3.4
2019-Aug-06 09:28N 42°55' W 070°30'4 2.7
2019-Aug-06 07:56N 42°52' W 070°27'14 2.6
2019-Aug-06 02:19N 42°37' W 070°30'8 5.8
2019-Aug-06 00:54N 42°34' W 070°40'1 3.2
2019-Aug-06 00:31N 42°35' W 070°41'1 1.9
2019-Aug-05 23:59N 42°36' W 070°40'0 0.0
2019-Aug-05 23:17N 42°36' W 070°40'0 0.0
2019-Aug-05 22:59N 42°36' W 070°40'0 0.0
2019-Aug-05 22:29N 42°36' W 070°40'0 0.0
2019-Aug-05 21:59N 42°36' W 070°40'0 0.1
2019-Aug-05 21:24N 42°36' W 070°40'1 3.5
2019-Aug-05 21:00N 42°35' W 070°39'7 5.4
2019-Aug-05 19:39N 42°40' W 070°32'2 2.6
2019-Aug-05 19:00N 42°41' W 070°30'0 0.3
2019-Aug-05 18:27N 42°41' W 070°30'1 1.1
2019-Aug-05 17:33N 42°42' W 070°30'2 5.2
2019-Aug-05 17:06N 42°43' W 070°27'  
2019-Aug-03 03:53N 41°32' W 069°01'13 3.6
2019-Aug-03 00:15N 41°40' W 069°15'1 5.6
2019-Aug-03 00:00N 41°41' W 069°16'  
Track history (hours):
 
Tides and Currents Weather Stations Pressure Air Temp Water Temp Dewpoint Dewpoint Depression Visibility Wind Speed Wind Dir Waves Ship Positions

Oceanographic research ship Corwith Cramer (USA)

Ship's website: http://www.sea.edu/sea2000/AboutSEA2000/cramer.htm

Detailed information on ship capabilities available from University of Delaware's Ocean Information Center.

Owner: SEA EDUCATION ASSOCIATION, WOODS HOLE, MA. More information available from US FCC via Universal Licensing System and Coast Guard Vessel Documentation Center.

Last reported at 2019-Aug-12 13:39 UTC. Time now 2019-Aug-24 20:09 UTC.
Position N 44°06' W 069°06'.
Warning: this ship's position is 12 days out of date.

Type: Sailing vessel. MMSI: 366724450.

Date/timePositionNaut miles runAvg speedWind from/ knotsBaromVisibWave heightAir tempDewpointWater temp
2019-Aug-12 13:39N 44°06' W 069°06'0 0.0
2019-Aug-12 13:27N 44°06' W 069°06'0 0.0
2019-Aug-12 12:54N 44°06' W 069°06'0 0.0
2019-Aug-12 12:21N 44°06' W 069°06'0 0.0
2019-Aug-12 12:00N 44°06' W 069°06'0 0.2
2019-Aug-12 11:30N 44°06' W 069°06'0 0.8
2019-Aug-12 10:56N 44°06' W 069°05'0 0.0
2019-Aug-12 09:40N 44°06' W 069°05'0 0.0
2019-Aug-12 09:19N 44°06' W 069°05'0 0.0
2019-Aug-12 08:56N 44°06' W 069°05'0 0.0
2019-Aug-12 08:29N 44°06' W 069°05'0 0.0
2019-Aug-12 07:58N 44°06' W 069°05'0 0.0
2019-Aug-12 07:28N 44°06' W 069°05'0 0.0
2019-Aug-12 06:59N 44°06' W 069°05'0 0.0
2019-Aug-12 06:25N 44°06' W 069°05'0 0.0
2019-Aug-12 05:49N 44°06' W 069°05'0 0.0
2019-Aug-12 05:28N 44°06' W 069°05'0 0.0
2019-Aug-12 04:58N 44°06' W 069°05'0 0.0
2019-Aug-12 04:28N 44°06' W 069°05'0 0.0
2019-Aug-12 03:58N 44°06' W 069°05'0 0.0
2019-Aug-12 03:28N 44°06' W 069°05'0 0.0
2019-Aug-12 02:52N 44°06' W 069°05'0 0.0
2019-Aug-12 02:25N 44°06' W 069°05'0 0.0
2019-Aug-12 01:55N 44°06' W 069°05'0 0.0
2019-Aug-12 01:28N 44°06' W 069°05'0 0.0
2019-Aug-12 00:58N 44°06' W 069°05'0 0.0
2019-Aug-12 00:25N 44°06' W 069°05'0 0.0
2019-Aug-11 23:58N 44°06' W 069°05'0 0.0
2019-Aug-11 23:19N 44°06' W 069°05'0 0.0
2019-Aug-11 22:19N 44°06' W 069°05'0 0.0
2019-Aug-11 21:30N 44°06' W 069°05'2 4.1
2019-Aug-11 20:54N 44°06' W 069°02'4 6.1
2019-Aug-11 20:12N 44°01' W 069°01'2 6.6
2019-Aug-11 19:58N 43°60' W 069°00'  
2019-Aug-07 16:05N 43°02' W 070°36'2 1.7
2019-Aug-07 15:00N 43°02' W 070°33'0 0.4
2019-Aug-07 14:28N 43°02' W 070°33'3 2.1
2019-Aug-07 13:03N 43°01' W 070°37'0 5.1
2019-Aug-07 12:59N 43°00' W 070°37'1 0.3
2019-Aug-07 10:30N 42°59' W 070°37'0 0.0
2019-Aug-07 09:51N 42°59' W 070°37'0 0.0
2019-Aug-07 09:24N 42°59' W 070°37'0 0.0
2019-Aug-07 09:00N 42°59' W 070°37'0 0.0
2019-Aug-07 08:27N 42°59' W 070°37'0 0.0
2019-Aug-07 07:54N 42°59' W 070°37'0 0.0
2019-Aug-07 07:30N 42°59' W 070°37'0 0.0
2019-Aug-07 07:00N 42°59' W 070°37'0 0.0
2019-Aug-07 06:30N 42°59' W 070°37'0 0.0
2019-Aug-07 06:00N 42°59' W 070°37'0 0.0
2019-Aug-07 05:30N 42°59' W 070°37'0 0.0
2019-Aug-07 04:51N 42°59' W 070°37'0 0.0
2019-Aug-07 04:09N 42°59' W 070°37'0 0.0
2019-Aug-07 02:57N 42°59' W 070°37'0 0.0
2019-Aug-07 01:51N 42°59' W 070°37'0 0.0
2019-Aug-06 22:48N 42°59' W 070°37'0 0.0
2019-Aug-06 22:12N 42°59' W 070°37'0 0.0
2019-Aug-06 21:54N 42°59' W 070°37'0 0.0
2019-Aug-06 21:21N 42°59' W 070°37'0 0.0
2019-Aug-06 20:45N 42°59' W 070°37'0 0.0
2019-Aug-06 19:45N 42°59' W 070°37'0 0.0
2019-Aug-06 18:24N 42°59' W 070°37'0 0.0
2019-Aug-06 18:00N 42°59' W 070°37'0 0.0
2019-Aug-06 17:21N 42°59' W 070°37'0 0.0
2019-Aug-06 16:32N 42°59' W 070°37'0 0.0
2019-Aug-06 16:29N 42°59' W 070°37'0 0.0
2019-Aug-06 15:53N 42°59' W 070°37'0 0.0
2019-Aug-06 15:29N 42°59' W 070°37'0 0.0
2019-Aug-06 14:59N 42°59' W 070°37'0 0.0
2019-Aug-06 14:29N 42°59' W 070°37'0 0.0
2019-Aug-06 13:50N 42°59' W 070°37'0 0.0
2019-Aug-06 13:29N 42°59' W 070°37'0 0.0
2019-Aug-06 12:59N 42°59' W 070°37'0 0.1
2019-Aug-06 12:30N 42°59' W 070°37'1 2.2
2019-Aug-06 12:00N 43°00' W 070°37'2 4.1
2019-Aug-06 11:28N 43°01' W 070°34'2 3.3
2019-Aug-06 10:55N 42°59' W 070°33'1 2.2
2019-Aug-06 10:30N 42°58' W 070°32'1 2.9
2019-Aug-06 09:59N 42°57' W 070°31'2 3.4
2019-Aug-06 09:28N 42°55' W 070°30'4 2.7
2019-Aug-06 07:56N 42°52' W 070°27'14 2.6
2019-Aug-06 02:19N 42°37' W 070°30'8 5.8
2019-Aug-06 00:54N 42°34' W 070°40'1 3.2
2019-Aug-06 00:31N 42°35' W 070°41'1 1.9
2019-Aug-05 23:59N 42°36' W 070°40'0 0.0
2019-Aug-05 23:17N 42°36' W 070°40'0 0.0
2019-Aug-05 22:59N 42°36' W 070°40'0 0.0
2019-Aug-05 22:29N 42°36' W 070°40'0 0.0
2019-Aug-05 21:59N 42°36' W 070°40'0 0.1
2019-Aug-05 21:24N 42°36' W 070°40'1 3.5
2019-Aug-05 21:00N 42°35' W 070°39'7 5.4
2019-Aug-05 19:39N 42°40' W 070°32'2 2.6
2019-Aug-05 19:00N 42°41' W 070°30'0 0.3
2019-Aug-05 18:27N 42°41' W 070°30'1 1.1
2019-Aug-05 17:33N 42°42' W 070°30'2 5.2
2019-Aug-05 17:06N 42°43' W 070°27'  
2019-Aug-03 03:53N 41°32' W 069°01'13 3.6
2019-Aug-03 00:15N 41°40' W 069°15'1 5.6
2019-Aug-03 00:00N 41°41' W 069°16'  

Dump ship's entire track history